createdAt,value
2023-04-20T06:27:23.771Z,26.40
2023-04-20T06:30:10.098Z,26.70
2023-04-20T06:32:53.237Z,28.50
2023-04-20T06:35:36.133Z,30.30
2023-04-20T06:38:19.093Z,24.60
2023-04-20T06:41:04.717Z,23.50
2023-04-20T06:43:47.584Z,21.10
2023-04-20T06:46:30.936Z,20.80
2023-04-20T06:49:13.862Z,21.30
2023-04-20T06:51:56.619Z,20.70
2023-04-20T06:54:39.415Z,20.80
2023-04-20T06:57:22.190Z,21.00
2023-04-20T07:00:08.695Z,21.30
2023-04-20T07:02:51.808Z,21.50
2023-04-20T07:05:36.478Z,21.20
2023-04-20T07:08:20.305Z,22.00
2023-04-20T07:11:03.181Z,19.50
2023-04-20T07:13:46.197Z,24.20
2023-04-20T07:16:29.187Z,21.10
2023-04-20T07:19:12.333Z,23.30
2023-04-20T07:21:55.145Z,21.40
2023-04-20T07:24:38.038Z,22.40
2023-04-20T07:27:20.871Z,21.00
2023-04-20T07:30:06.405Z,22.10
2023-04-20T07:32:49.671Z,21.30
2023-04-20T07:35:32.627Z,22.70
2023-04-20T07:38:15.742Z,20.40
2023-04-20T07:40:58.642Z,21.10
2023-04-20T07:43:41.750Z,23.10
2023-04-20T07:46:24.705Z,20.30
2023-04-20T07:49:07.704Z,20.70
2023-04-20T07:51:50.573Z,19.90
2023-04-20T07:54:33.652Z,20.10
2023-04-20T07:57:16.678Z,21.30
2023-04-20T07:59:59.809Z,23.80
2023-04-20T08:02:42.791Z,19.70
2023-04-20T08:05:25.963Z,20.40
2023-04-20T08:08:08.937Z,18.30
2023-04-20T08:10:51.824Z,18.60
2023-04-20T08:13:36.689Z,20.60
2023-04-20T08:16:19.445Z,21.80
2023-04-20T08:19:03.781Z,18.70
2023-04-20T08:21:46.694Z,18.70
2023-04-20T08:24:29.754Z,22.70
2023-04-20T08:27:12.681Z,22.00
2023-04-20T08:29:56.314Z,19.10
2023-04-20T08:32:40.294Z,20.30
2023-04-20T08:35:23.158Z,30.30
2023-04-20T08:38:06.235Z,21.50
2023-04-20T08:40:49.056Z,17.90
2023-04-20T08:43:32.360Z,26.60
2023-04-20T08:46:15.540Z,18.20
2023-04-20T08:49:01.497Z,17.20
2023-04-20T08:51:45.420Z,18.50
2023-04-20T08:54:28.273Z,19.30
2023-04-20T08:57:11.243Z,18.10
2023-04-20T08:59:54.538Z,23.20
2023-04-20T09:02:49.588Z,23.40
2023-04-20T09:05:33.574Z,20.50
2023-04-20T09:08:16.560Z,18.70
2023-04-20T09:10:59.626Z,26.00
2023-04-20T09:13:43.235Z,19.50
2023-04-20T09:16:26.427Z,16.30
2023-04-20T09:19:10.114Z,19.90
2023-04-20T09:21:55.842Z,20.10
2023-04-20T09:24:41.320Z,23.90
2023-04-20T09:27:26.326Z,22.30
2023-04-20T09:30:10.002Z,20.10
2023-04-20T09:33:08.164Z,21.30
2023-04-20T09:35:51.242Z,19.00
2023-04-20T09:38:34.421Z,24.20
2023-04-20T09:41:18.310Z,20.50
2023-04-20T09:44:02.183Z,24.90
2023-04-20T09:46:46.813Z,22.30
2023-04-20T09:49:30.196Z,16.40
2023-04-20T09:52:17.400Z,24.80
2023-04-20T09:55:00.468Z,22.70
2023-04-20T09:57:45.263Z,20.00
2023-04-20T10:00:28.318Z,19.80
2023-04-20T10:03:12.713Z,20.30
2023-04-20T10:05:55.979Z,19.30
2023-04-20T10:08:42.482Z,14.30
2023-04-20T10:11:49.048Z,14.20
2023-04-20T10:14:36.035Z,13.50
2023-04-20T10:17:33.615Z,15.40
2023-04-20T10:20:20.580Z,16.00
2023-04-20T10:23:09.746Z,13.30
2023-04-20T10:26:00.897Z,9.90
2023-04-20T10:28:45.205Z,12.70
2023-04-20T10:31:37.413Z,12.70
2023-04-20T10:34:33.218Z,12.00
2023-04-20T10:37:16.077Z,18.30
2023-04-20T10:39:59.653Z,19.10
2023-04-20T10:42:44.285Z,15.40
2023-04-20T10:45:38.521Z,17.10
2023-04-20T10:48:21.927Z,16.90
2023-04-20T10:51:11.462Z,15.60
2023-04-20T10:54:05.657Z,17.80
2023-04-20T10:56:51.895Z,13.50
2023-04-20T10:59:35.260Z,13.40
2023-04-20T11:02:18.308Z,15.90
2023-04-20T11:05:11.518Z,12.80
2023-04-20T11:07:59.022Z,11.70
2023-04-20T11:10:42.892Z,12.40
2023-04-20T11:13:29.209Z,9.30
2023-04-20T11:16:16.828Z,6.20
2023-04-20T11:18:59.929Z,12.80
2023-04-20T11:21:42.794Z,8.90
2023-04-20T11:24:27.994Z,12.90
2023-04-20T11:27:21.057Z,10.50
2023-04-20T11:30:06.275Z,7.70
2023-04-20T11:32:55.036Z,10.50
2023-04-20T11:35:39.928Z,10.20
2023-04-20T11:38:29.279Z,13.40
2023-04-20T11:41:12.032Z,8.70
2023-04-20T11:43:54.913Z,9.80
2023-04-20T11:46:37.793Z,6.60
2023-04-20T11:49:22.069Z,7.40
2023-04-20T11:52:05.696Z,11.30
2023-04-20T11:54:48.490Z,9.50
2023-04-20T11:57:31.253Z,10.50
2023-04-20T12:00:15.276Z,7.70
2023-04-20T12:03:00.067Z,12.30
2023-04-20T12:05:43.388Z,8.00
2023-04-20T12:08:26.509Z,9.30
2023-04-20T12:11:09.672Z,9.20
2023-04-20T12:13:53.826Z,10.10
2023-04-20T12:16:36.809Z,12.50
2023-04-20T12:19:22.872Z,11.50
2023-04-20T12:22:06.521Z,15.10
2023-04-20T12:24:49.599Z,8.80
2023-04-20T12:27:32.504Z,12.80
2023-04-20T12:30:16.773Z,15.90
2023-04-20T12:32:59.630Z,13.40
2023-04-20T12:35:43.418Z,9.90
2023-04-20T12:38:26.591Z,9.00
2023-04-20T12:41:14.855Z,10.00
2023-04-20T12:43:57.972Z,13.30
2023-04-20T12:46:41.118Z,8.60
2023-04-20T12:49:24.009Z,16.30
2023-04-20T12:52:08.262Z,7.70
2023-04-20T12:54:51.449Z,11.70
2023-04-20T12:57:34.494Z,8.70
2023-04-20T13:00:17.907Z,12.70
2023-04-20T13:03:00.989Z,13.50
2023-04-20T13:05:44.626Z,14.20
2023-04-20T13:08:27.500Z,11.20
2023-04-20T13:11:15.656Z,12.90
2023-04-20T13:13:58.644Z,19.00
2023-04-20T13:16:41.655Z,15.00
2023-04-20T13:19:24.670Z,15.40
2023-04-20T13:22:07.458Z,12.20
2023-04-20T13:24:50.230Z,11.60
2023-04-20T13:27:33.491Z,16.30
2023-04-20T13:30:16.551Z,9.00
2023-04-20T13:33:01.017Z,13.10
2023-04-20T13:35:44.003Z,13.50
2023-04-20T13:38:26.866Z,14.40
2023-04-20T13:41:09.724Z,12.10
2023-04-20T13:43:52.532Z,14.80
2023-04-20T13:46:35.378Z,9.00
2023-04-20T13:49:22.653Z,17.10
2023-04-20T13:52:05.805Z,15.60
2023-04-20T13:54:48.730Z,15.80
2023-04-20T13:57:31.677Z,16.30
2023-04-20T14:00:15.069Z,15.40
2023-04-20T14:02:58.312Z,10.50
2023-04-20T14:05:42.010Z,24.40
2023-04-20T14:08:24.953Z,13.90
2023-04-20T14:11:08.886Z,17.20
2023-04-20T14:13:52.899Z,18.10
2023-04-20T14:16:46.868Z,15.90
2023-04-20T14:19:29.780Z,19.90
2023-04-20T14:22:12.593Z,17.70
2023-04-20T14:24:55.404Z,13.90
2023-04-20T14:27:38.274Z,12.00
2023-04-20T14:30:21.338Z,17.30
2023-04-20T14:33:05.648Z,16.90
2023-04-20T14:35:48.668Z,21.20
2023-04-20T14:38:31.464Z,15.30
2023-04-20T14:41:16.065Z,17.30
2023-04-20T14:43:58.998Z,21.80
2023-04-20T14:46:42.629Z,16.30
2023-04-20T14:49:25.755Z,14.60
2023-04-20T14:52:09.062Z,12.80
2023-04-20T14:54:51.970Z,11.90
2023-04-20T14:57:34.996Z,24.40
2023-04-20T15:00:18.733Z,12.30
2023-04-20T15:03:01.944Z,18.40
2023-04-20T15:05:45.962Z,15.70
2023-04-20T15:08:30.986Z,19.80
2023-04-20T15:11:13.858Z,15.90
2023-04-20T15:13:57.871Z,24.10
2023-04-20T15:16:40.896Z,19.10
2023-04-20T15:19:23.941Z,21.60
2023-04-20T15:22:06.836Z,22.40
2023-04-20T15:24:49.609Z,17.30
2023-04-20T15:27:32.678Z,19.10
2023-04-20T15:30:15.794Z,16.90
2023-04-20T15:33:04.487Z,27.10
2023-04-20T15:35:48.347Z,21.90
2023-04-20T15:38:31.235Z,19.70
2023-04-20T15:41:16.393Z,21.80
2023-04-20T15:43:59.259Z,21.00
2023-04-20T15:46:42.103Z,18.10
2023-04-20T15:49:25.210Z,17.50
2023-04-20T15:52:08.742Z,31.20
2023-04-20T15:54:51.504Z,24.30
2023-04-20T15:57:34.281Z,22.10
2023-04-20T16:00:17.629Z,19.20
2023-04-20T16:03:01.705Z,17.90
2023-04-20T16:05:44.862Z,19.00
2023-04-20T16:08:27.968Z,26.10
2023-04-20T16:11:11.102Z,15.30
2023-04-20T16:13:56.872Z,19.30
